KBDH

Willmar Municipal-John L Rice Field Airport

Willmar, Minnesota, USA
METAR KBDH 211255Z AUTO 00000KT 10SM CLR M23/M25 A3052 RMK AO2
Observed Flight Rules
Feb-21 @ 12:55 UTC (16 minutes ago) Visual Flight Rules
Wind Visibility Clouds
Calm 10 miles
  • Clear skies
Temperatures Readings
Current -23°C / -9°F
Dewpoint -25°C / -13°F
Humidity 84%
Altimeter 30.52" Hg
Pressure 1034 hPa
Elevation 247
METAR KBDH 211255Z AUTO 00000KT 10SM CLR M23/M25 A3052 RMK AO2
Observed Flight Rules
Feb-21 @ 12:55 UTC
(16 minutes ago)
VFR
Wind Visibility
Calm 10 miles
Clouds
  • Clear skies
Temperature Dewpoint
-23°C / -9°F -25°C / -13°F
Humidity Altimeter Pressure
84% 30.52" Hg 1034 hPa